createdAt,value
2018-11-21T11:31:17.658Z,79.00
2018-11-21T11:36:41.624Z,78.70
2018-11-21T11:42:11.609Z,80.80
2018-11-21T11:47:38.336Z,80.80
2018-11-21T11:53:01.674Z,80.70
2018-11-21T11:58:28.463Z,80.40
2018-11-21T12:03:45.175Z,80.00
2018-11-21T12:09:07.007Z,80.70
2018-11-21T12:14:26.288Z,80.40
2018-11-21T12:19:52.953Z,79.00
2018-11-21T12:25:15.560Z,79.50
2018-11-21T12:30:38.629Z,80.80
2018-11-21T12:36:10.870Z,80.40
2018-11-21T12:41:40.681Z,80.60
2018-11-21T12:47:03.359Z,80.10
2018-11-21T12:52:21.414Z,79.90
2018-11-21T12:58:00.789Z,79.80
2018-11-21T13:03:15.985Z,80.40
2018-11-21T13:08:42.725Z,79.40
2018-11-21T13:14:07.049Z,79.80
2018-11-21T13:19:30.050Z,78.40
2018-11-21T13:24:47.997Z,79.20
2018-11-21T13:30:13.244Z,77.30
2018-11-21T13:35:45.997Z,77.60
2018-11-21T13:41:14.199Z,77.50
2018-11-21T13:46:37.226Z,79.00
2018-11-21T13:51:59.885Z,79.20
2018-11-21T13:57:04.747Z,77.50
2018-11-21T14:02:09.585Z,77.90
2018-11-21T14:07:14.427Z,79.00
2018-11-21T14:12:19.272Z,77.60
2018-11-21T14:17:27.800Z,78.70
2018-11-21T14:22:28.978Z,78.10
2018-11-21T14:27:33.858Z,79.70
2018-11-21T14:32:38.946Z,79.00
2018-11-21T14:37:44.074Z,77.70
2018-11-21T14:42:48.909Z,77.90
2018-11-21T14:47:55.014Z,79.80
2018-11-21T14:53:00.178Z,80.50
2018-11-21T14:58:05.272Z,80.30
2018-11-21T15:03:10.481Z,80.60
2018-11-21T15:08:15.735Z,81.30
2018-11-21T15:13:20.445Z,81.10
2018-11-21T15:18:25.309Z,80.80
2018-11-21T15:23:30.144Z,82.20
2018-11-21T15:28:34.975Z,81.60
2018-11-21T15:33:39.785Z,81.40
2018-11-21T15:38:44.655Z,81.00
2018-11-21T15:43:49.597Z,81.10
2018-11-21T15:48:54.426Z,81.30
2018-11-21T15:53:59.455Z,81.60
2018-11-21T15:59:04.299Z,81.30
2018-11-21T16:04:09.163Z,81.40
2018-11-21T16:09:14.040Z,81.80
2018-11-21T16:14:18.854Z,82.10
2018-11-21T16:19:23.661Z,82.90
2018-11-21T16:24:28.588Z,83.50
2018-11-21T16:29:36.957Z,83.90
2018-11-21T16:34:38.159Z,83.30
2018-11-21T16:39:43.048Z,83.40
2018-11-21T16:44:47.880Z,82.70
2018-11-21T16:49:52.767Z,82.40
2018-11-21T16:54:57.609Z,81.60
2018-11-21T17:00:02.701Z,81.20
2018-11-21T17:05:10.364Z,81.50
2018-11-21T17:10:16.888Z,81.50
2018-11-21T17:15:23.259Z,82.40
2018-11-21T17:20:32.945Z,82.50
2018-11-21T17:25:38.798Z,83.10
2018-11-21T17:30:43.696Z,82.70
2018-11-21T17:35:48.702Z,82.90
2018-11-21T17:40:53.559Z,83.70
2018-11-21T17:46:04.008Z,83.90
2018-11-21T17:51:03.247Z,83.90
2018-11-21T17:56:08.133Z,83.20
2018-11-21T18:01:12.933Z,83.50
2018-11-21T18:06:17.814Z,83.40
2018-11-21T18:11:22.714Z,84.50
2018-11-21T18:16:28.069Z,83.90
2018-11-21T18:21:32.965Z,84.80
2018-11-21T18:26:38.143Z,86.00
2018-11-21T18:31:43.017Z,85.60
2018-11-21T18:36:47.885Z,86.80
2018-11-21T18:41:57.943Z,84.90
2018-11-21T18:46:57.559Z,84.60
2018-11-21T18:52:02.413Z,85.50
2018-11-21T18:57:52.872Z,86.90
2018-11-21T19:02:57.768Z,86.30
2018-11-21T19:08:02.563Z,85.00
2018-11-21T19:13:07.606Z,84.60
2018-11-21T19:18:12.487Z,86.80
2018-11-21T19:23:17.329Z,86.60
2018-11-21T19:28:22.112Z,85.70
2018-11-21T19:33:27.107Z,85.00
2018-11-21T19:38:31.948Z,85.80
2018-11-21T19:43:36.831Z,85.90
2018-11-21T19:48:41.677Z,86.50
2018-11-21T19:53:46.512Z,86.00
2018-11-21T19:58:51.327Z,85.60
2018-11-21T20:03:56.127Z,84.60
2018-11-21T20:09:00.946Z,84.50
2018-11-21T20:14:05.876Z,84.60
2018-11-21T20:19:10.720Z,84.90
2018-11-21T20:24:15.513Z,85.40
2018-11-21T20:29:20.343Z,84.80
2018-11-21T20:34:25.217Z,84.60
2018-11-21T20:39:30.080Z,85.90
2018-11-21T20:44:34.969Z,85.10
2018-11-21T20:49:39.833Z,86.30
2018-11-21T20:54:44.689Z,86.00
2018-11-21T20:59:49.581Z,86.10
2018-11-21T21:04:54.449Z,85.70
2018-11-21T21:09:59.130Z,85.00
2018-11-21T21:15:04.242Z,85.20
2018-11-21T21:20:11.783Z,85.70
2018-11-21T21:25:18.283Z,85.20
2018-11-21T21:30:24.920Z,85.30
2018-11-21T21:35:31.127Z,84.50
2018-11-21T21:40:35.971Z,84.60
2018-11-21T21:45:40.665Z,84.20
2018-11-21T21:50:45.453Z,85.30
2018-11-21T21:55:50.270Z,87.00
2018-11-21T22:00:54.997Z,85.80
2018-11-21T22:05:59.896Z,88.60
2018-11-21T22:11:04.858Z,92.70
2018-11-21T22:16:09.707Z,89.70
2018-11-21T22:21:14.635Z,86.50
2018-11-21T22:26:19.440Z,87.30
2018-11-21T22:31:24.314Z,90.00
2018-11-21T22:36:29.238Z,88.60
2018-11-21T22:41:33.947Z,92.10
2018-11-21T22:46:38.789Z,91.30
2018-11-21T22:51:47.580Z,90.90
2018-11-21T22:56:48.338Z,90.50
2018-11-21T23:01:53.205Z,90.00
2018-11-21T23:06:57.936Z,90.30
2018-11-21T23:12:02.828Z,90.40
2018-11-21T23:17:07.688Z,90.00
2018-11-21T23:22:12.468Z,89.40
2018-11-21T23:27:17.342Z,89.70
2018-11-21T23:32:22.436Z,90.10
2018-11-21T23:37:27.253Z,90.30
2018-11-21T23:42:32.042Z,90.90
2018-11-21T23:47:36.841Z,91.20
2018-11-21T23:52:41.745Z,91.60
2018-11-21T23:57:46.770Z,92.50
